Terminal Aerodrome Forecast
Issued by NWS

Home | Current Version | Previous Version | Text Only | Print | Product List | Glossary On
Versions: 1 2 3 4 5 6 7 8 9 10 11 12 13 14 15
000
FTUS46 KSEW 271735
TAFHQM
TAF
KHQM 271735Z 2718/2818 VRB04KT P6SM OVC050
     FM272300 26016G22KT P6SM BKN035
     FM280100 28015G21KT P6SM VCSH BKN035
     FM280400 28010KT P6SM BKN030
     FM281100 30004KT P6SM OVC025
     FM281700 24007KT P6SM OVC030=

USA.gov is the U.S. government's official web portal to all federal, state and local government web resources and services.